createdAt,value
2018-01-16T00:01:24.620Z,100655.98
2018-01-16T00:03:52.208Z,100658.02
2018-01-16T00:06:19.790Z,100651.22
2018-01-16T00:08:47.418Z,100643.72
2018-01-16T00:11:15.026Z,100639.80
2018-01-16T00:13:42.595Z,100628.06
2018-01-16T00:16:10.236Z,100623.96
2018-01-16T00:18:37.804Z,100640.69
2018-01-16T00:21:05.517Z,100640.63
2018-01-16T00:23:33.137Z,100637.17
2018-01-16T00:26:00.900Z,100640.92
2018-01-16T00:28:28.484Z,100616.81
2018-01-16T00:30:56.173Z,100596.13
2018-01-16T00:33:23.747Z,100592.38
2018-01-16T00:35:51.488Z,100619.37
2018-01-16T00:38:19.149Z,100626.22
2018-01-16T00:40:46.885Z,100641.75
2018-01-16T00:43:14.675Z,100634.80
2018-01-16T00:45:42.297Z,100615.16
2018-01-16T00:48:09.890Z,100614.19
2018-01-16T00:50:37.471Z,100639.91
2018-01-16T00:53:05.103Z,100624.24
2018-01-16T00:55:33.003Z,100616.69
2018-01-16T00:58:00.602Z,100616.99
2018-01-16T01:00:28.316Z,100610.61
2018-01-16T01:02:55.902Z,100611.80
2018-01-16T01:05:23.484Z,100601.33
2018-01-16T01:07:51.104Z,100603.28
2018-01-16T01:10:18.696Z,100604.55
2018-01-16T01:12:46.278Z,100605.27
2018-01-16T01:15:14.083Z,100597.83
2018-01-16T01:17:41.668Z,100591.27
2018-01-16T01:20:09.245Z,100595.30
2018-01-16T01:22:37.080Z,100588.94
2018-01-16T01:25:04.741Z,100582.09
2018-01-16T01:27:32.469Z,100574.23
2018-01-16T01:30:00.270Z,100582.86
2018-01-16T01:32:27.934Z,100577.36
2018-01-16T01:34:55.585Z,100562.83
2018-01-16T01:37:23.211Z,100570.16
2018-01-16T01:39:50.792Z,100576.95
2018-01-16T01:42:18.354Z,100578.40
2018-01-16T01:44:45.968Z,100578.31
2018-01-16T01:47:13.689Z,100583.50
2018-01-16T01:49:41.266Z,100574.87
2018-01-16T01:52:09.007Z,100573.41
2018-01-16T01:54:36.688Z,100563.38
2018-01-16T01:57:04.263Z,100558.22
2018-01-16T01:59:31.867Z,100564.20
2018-01-16T02:01:59.434Z,100557.58
2018-01-16T02:04:27.118Z,100559.69
2018-01-16T02:06:54.779Z,100548.61
2018-01-16T02:09:22.354Z,100553.97
2018-01-16T02:11:49.939Z,100548.98
2018-01-16T02:14:17.577Z,100543.91
2018-01-16T02:16:45.155Z,100545.23
2018-01-16T02:19:12.739Z,100559.57
2018-01-16T02:21:40.566Z,100553.95
2018-01-16T02:24:08.215Z,100548.41
2018-01-16T02:26:35.790Z,100539.66
2018-01-16T02:29:03.666Z,100541.31
2018-01-16T02:31:31.257Z,100573.84
2018-01-16T02:33:59.072Z,100564.97
2018-01-16T02:36:26.724Z,100560.78
2018-01-16T02:38:54.308Z,100572.97
2018-01-16T02:41:21.893Z,100570.84
2018-01-16T02:43:49.711Z,100548.63
2018-01-16T02:46:17.393Z,100544.14
2018-01-16T02:48:45.053Z,100549.44
2018-01-16T02:51:12.717Z,100540.03
2018-01-16T02:53:40.286Z,100548.99
2018-01-16T02:56:08.023Z,100546.23
2018-01-16T02:58:35.667Z,100545.05
2018-01-16T03:01:03.353Z,100524.80
2018-01-16T03:03:30.925Z,100537.32
2018-01-16T03:05:58.670Z,100530.02
2018-01-16T03:08:26.255Z,100540.52
2018-01-16T03:10:54.011Z,100537.78
2018-01-16T03:13:21.628Z,100549.69
2018-01-16T03:15:49.215Z,100554.53
2018-01-16T03:18:16.787Z,100549.50
2018-01-16T03:20:44.403Z,100545.82
2018-01-16T03:23:12.110Z,100541.87
2018-01-16T03:25:39.687Z,100529.95
2018-01-16T03:28:07.308Z,100542.98
2018-01-16T03:30:35.156Z,100529.48
2018-01-16T03:33:02.768Z,100525.25
2018-01-16T03:35:30.393Z,100522.72
2018-01-16T03:37:58.076Z,100521.53
2018-01-16T03:40:25.739Z,100522.48
2018-01-16T03:42:53.347Z,100507.91
2018-01-16T03:45:21.088Z,100517.14
2018-01-16T03:47:48.689Z,100499.83
2018-01-16T03:50:16.387Z,100500.25
2018-01-16T03:52:44.052Z,100497.36
2018-01-16T03:55:11.632Z,100489.59
2018-01-16T03:57:39.248Z,100487.56
2018-01-16T04:00:07.046Z,100483.30
2018-01-16T04:02:34.628Z,100487.83
2018-01-16T04:05:02.376Z,100483.21
2018-01-16T04:07:29.956Z,100477.55
2018-01-16T04:09:57.689Z,100477.52
2018-01-16T04:12:25.353Z,100486.70
2018-01-16T04:14:52.915Z,100486.31
2018-01-16T04:17:20.690Z,100481.06
2018-01-16T04:19:48.307Z,100475.77
2018-01-16T04:22:15.887Z,100462.53
2018-01-16T04:24:43.509Z,100459.07
2018-01-16T04:27:11.334Z,100474.66
2018-01-16T04:29:39.188Z,100471.53
2018-01-16T04:32:06.776Z,100462.27
2018-01-16T04:34:34.426Z,100446.30
2018-01-16T04:37:01.997Z,100444.30
2018-01-16T04:39:29.634Z,100452.94
2018-01-16T04:41:57.505Z,100450.91
2018-01-16T04:44:25.082Z,100451.75
2018-01-16T04:46:52.655Z,100456.21
2018-01-16T04:49:20.266Z,100467.59
2018-01-16T04:51:47.844Z,100454.34
2018-01-16T04:54:15.413Z,100448.20
2018-01-16T04:56:43.027Z,100436.55
2018-01-16T04:59:10.734Z,100442.33
2018-01-16T05:01:38.312Z,100458.75
2018-01-16T05:04:06.277Z,100455.27
2018-01-16T05:06:33.862Z,100450.61
2018-01-16T05:09:01.431Z,100439.41
2018-01-16T05:11:29.239Z,100445.73
2018-01-16T05:13:56.814Z,100429.70
2018-01-16T05:16:24.574Z,100424.73
2018-01-16T05:18:52.186Z,100433.48
2018-01-16T05:21:20.039Z,100439.36
2018-01-16T05:23:47.762Z,100447.95
2018-01-16T05:26:15.550Z,100440.94
2018-01-16T05:28:43.137Z,100418.03
2018-01-16T05:31:10.833Z,100414.03
2018-01-16T05:33:38.460Z,100414.36
2018-01-16T05:36:06.114Z,100414.30
2018-01-16T05:38:33.733Z,100416.98
2018-01-16T05:41:01.350Z,100415.84
2018-01-16T05:43:28.930Z,100409.86
2018-01-16T05:45:56.730Z,100405.92
2018-01-16T05:48:24.388Z,100403.78
2018-01-16T05:50:52.055Z,100402.47
2018-01-16T05:53:19.699Z,100400.70
2018-01-16T05:55:47.310Z,100387.59
2018-01-16T05:58:15.046Z,100371.20
2018-01-16T06:00:42.686Z,100384.98
2018-01-16T06:03:10.357Z,100394.05
2018-01-16T06:05:37.961Z,100395.34
2018-01-16T06:08:05.591Z,100390.72
2018-01-16T06:10:33.338Z,100391.78
2018-01-16T06:13:00.925Z,100393.91
2018-01-16T06:15:28.672Z,100383.41
2018-01-16T06:17:56.540Z,100377.28
2018-01-16T06:20:24.127Z,100386.84
2018-01-16T06:22:51.857Z,100388.03
2018-01-16T06:25:19.487Z,100374.97
2018-01-16T06:27:47.176Z,100371.47
2018-01-16T06:30:15.127Z,100366.13
2018-01-16T06:32:43.132Z,100362.54
2018-01-16T06:35:10.711Z,100355.87
2018-01-16T06:37:38.464Z,100356.67
2018-01-16T06:40:06.494Z,100359.16
2018-01-16T06:42:34.312Z,100361.16
2018-01-16T06:45:02.126Z,100351.72
2018-01-16T06:47:29.741Z,100349.32
2018-01-16T06:49:57.384Z,100340.70
2018-01-16T06:52:25.041Z,100340.52
2018-01-16T06:54:52.703Z,100342.33
2018-01-16T06:57:20.353Z,100339.84
2018-01-16T06:59:47.957Z,100340.44
2018-01-16T07:02:15.667Z,100324.55
2018-01-16T07:04:43.532Z,100311.68
2018-01-16T07:07:11.399Z,100306.44
2018-01-16T07:09:39.069Z,100313.00
2018-01-16T07:12:06.641Z,100307.86
2018-01-16T07:14:34.403Z,100298.37
2018-01-16T07:17:02.142Z,100284.23
2018-01-16T07:19:29.774Z,100274.12
2018-01-16T07:21:57.341Z,100258.52
2018-01-16T07:24:25.011Z,100264.85
2018-01-16T07:26:52.624Z,100263.03
2018-01-16T07:29:20.236Z,100265.90
2018-01-16T07:31:47.826Z,100274.05
2018-01-16T07:34:15.508Z,100266.36
2018-01-16T07:36:43.346Z,100261.11
2018-01-16T07:39:11.088Z,100256.97
2018-01-16T07:41:38.673Z,100252.45
2018-01-16T07:44:06.256Z,100248.75
2018-01-16T07:46:34.009Z,100231.91
2018-01-16T07:49:01.685Z,100220.23
2018-01-16T07:51:29.263Z,100221.84
2018-01-16T07:53:57.188Z,100217.41
2018-01-16T07:56:24.878Z,100219.91
2018-01-16T07:58:52.444Z,100214.90
2018-01-16T08:01:20.206Z,100211.45
2018-01-16T08:03:48.031Z,100209.33
2018-01-16T08:06:15.846Z,100208.92
2018-01-16T08:08:43.597Z,100199.98
2018-01-16T08:11:11.261Z,100194.83
2018-01-16T08:13:39.096Z,100187.06
2018-01-16T08:16:06.773Z,100185.16
2018-01-16T08:18:34.397Z,100168.03
2018-01-16T08:21:01.960Z,100168.59
2018-01-16T08:23:29.766Z,100162.03
2018-01-16T08:25:57.352Z,100155.98
2018-01-16T08:28:25.097Z,100159.73
2018-01-16T08:30:52.953Z,100155.41
2018-01-16T08:33:20.628Z,100144.23
2018-01-16T08:35:48.197Z,100128.19
2018-01-16T08:38:16.111Z,100102.70
2018-01-16T08:40:43.695Z,100106.31
2018-01-16T08:43:12.356Z,100098.68
2018-01-16T08:45:40.026Z,100097.43
2018-01-16T08:48:07.604Z,100092.30
2018-01-16T08:50:35.269Z,100097.23
2018-01-16T08:53:02.981Z,100104.77
2018-01-16T08:55:30.611Z,100097.47
2018-01-16T08:57:58.178Z,100091.34
2018-01-16T09:00:25.937Z,100091.62
2018-01-16T09:02:53.804Z,100093.06
2018-01-16T09:05:21.388Z,100086.80
2018-01-16T09:07:49.010Z,100085.12
2018-01-16T09:10:16.599Z,100067.17
2018-01-16T09:12:44.240Z,100072.62
2018-01-16T09:15:11.879Z,100064.40
2018-01-16T09:17:39.572Z,100064.88
2018-01-16T09:20:07.419Z,100056.83
2018-01-16T09:22:35.064Z,100046.00
2018-01-16T09:25:02.650Z,100050.25
2018-01-16T09:27:30.245Z,100051.23
2018-01-16T09:29:57.850Z,100048.81
2018-01-16T09:32:25.440Z,100048.74
2018-01-16T09:34:53.018Z,100043.52
2018-01-16T09:37:20.745Z,100036.10
2018-01-16T09:39:48.329Z,100044.72
2018-01-16T09:42:15.988Z,100037.39
2018-01-16T09:44:43.712Z,100029.98
2018-01-16T09:47:11.507Z,100023.14
2018-01-16T09:49:39.089Z,100032.36
2018-01-16T09:52:06.846Z,100028.47
2018-01-16T09:54:34.426Z,100018.45
2018-01-16T09:57:02.013Z,100013.03
2018-01-16T09:59:29.812Z,100014.28
2018-01-16T10:01:57.387Z,100010.72
2018-01-16T10:04:25.051Z,100015.02
2018-01-16T10:06:52.669Z,100011.63
2018-01-16T10:09:20.274Z,100017.52
2018-01-16T10:11:47.849Z,100019.80
2018-01-16T10:14:15.493Z,100018.36
2018-01-16T10:16:43.229Z,100016.98
2018-01-16T10:19:10.922Z,100020.09
2018-01-16T10:21:38.569Z,100010.08
2018-01-16T10:24:06.245Z,100029.59
2018-01-16T10:26:34.104Z,100026.83
2018-01-16T10:29:01.775Z,100012.27
2018-01-16T10:31:29.360Z,100017.28
2018-01-16T10:33:57.099Z,100022.64
2018-01-16T10:36:24.836Z,100007.45
2018-01-16T10:38:52.617Z,100006.42
2018-01-16T10:41:20.298Z,100007.55
2018-01-16T10:43:47.915Z,100002.87
2018-01-16T10:46:15.491Z,100008.25
2018-01-16T10:48:43.101Z,99999.36
2018-01-16T10:51:10.926Z,99990.63
2018-01-16T10:53:38.590Z,99991.16
2018-01-16T10:56:06.260Z,99976.75
2018-01-16T10:58:33.872Z,99969.87
2018-01-16T11:01:01.583Z,99954.66
2018-01-16T11:03:29.332Z,99953.56
2018-01-16T11:05:56.936Z,99938.78
2018-01-16T11:08:24.509Z,99932.78
2018-01-16T11:10:52.222Z,99924.78
2018-01-16T11:13:19.835Z,99923.93
2018-01-16T11:15:47.413Z,99917.36
2018-01-16T11:18:15.014Z,99912.38
2018-01-16T11:20:42.616Z,99904.66
2018-01-16T11:23:10.182Z,99895.62
2018-01-16T11:25:37.800Z,99900.98
2018-01-16T11:28:05.450Z,99887.64
2018-01-16T11:30:33.111Z,99886.32
2018-01-16T11:33:00.787Z,99889.30
2018-01-16T11:35:28.511Z,99884.55
2018-01-16T11:37:56.316Z,99883.86
2018-01-16T11:40:23.978Z,99867.50
2018-01-16T11:42:51.585Z,99867.84
2018-01-16T11:45:19.507Z,99864.20
2018-01-16T11:47:47.067Z,99846.52
2018-01-16T11:50:14.712Z,99840.87
2018-01-16T11:52:42.293Z,99831.52
2018-01-16T11:55:10.094Z,99837.22
2018-01-16T11:57:37.805Z,99827.09
2018-01-16T12:00:05.420Z,99811.03
2018-01-16T12:02:33.141Z,99805.42
2018-01-16T12:05:00.829Z,99801.52
2018-01-16T12:07:28.656Z,99794.20
2018-01-16T12:09:56.335Z,99784.66
2018-01-16T12:12:23.976Z,99780.87
2018-01-16T12:14:51.588Z,99774.83
2018-01-16T12:17:19.315Z,99764.20
2018-01-16T12:19:46.954Z,99751.33
2018-01-16T12:22:14.593Z,99746.08
2018-01-16T12:24:42.299Z,99746.67
2018-01-16T12:27:09.904Z,99743.36
2018-01-16T12:29:37.484Z,99754.59
2018-01-16T12:32:05.089Z,99753.16
2018-01-16T12:34:32.705Z,99746.77
2018-01-16T12:37:00.415Z,99748.84
2018-01-16T12:39:28.124Z,99745.72
2018-01-16T12:41:55.929Z,99742.36
2018-01-16T12:44:23.588Z,99727.16
2018-01-16T12:46:51.217Z,99720.16
2018-01-16T12:49:18.827Z,99722.62
2018-01-16T12:51:46.402Z,99714.55
2018-01-16T12:54:14.047Z,99707.41
2018-01-16T12:56:41.713Z,99707.53
2018-01-16T12:59:09.289Z,99707.22
2018-01-16T13:01:39.050Z,99701.43
2018-01-16T13:04:08.364Z,99695.89
2018-01-16T13:06:36.039Z,99682.22
2018-01-16T13:09:03.912Z,99687.45
2018-01-16T13:11:31.522Z,99688.87
2018-01-16T13:13:59.327Z,99673.86
2018-01-16T13:16:27.094Z,99682.42
2018-01-16T13:18:54.764Z,99671.34
2018-01-16T13:21:22.431Z,99674.38
2018-01-16T13:23:50.013Z,99665.37
2018-01-16T13:26:17.617Z,99659.75
2018-01-16T13:28:45.192Z,99640.63
2018-01-16T13:31:12.808Z,99640.29
2018-01-16T13:33:40.437Z,99641.89
2018-01-16T13:36:08.042Z,99629.73
2018-01-16T13:38:35.849Z,99628.41
2018-01-16T13:41:03.478Z,99632.78
2018-01-16T13:43:31.051Z,99623.55
2018-01-16T13:45:58.647Z,99619.23
2018-01-16T13:48:26.267Z,99617.59
2018-01-16T13:50:53.883Z,99614.41
2018-01-16T13:53:21.484Z,99607.52
2018-01-16T13:55:49.109Z,99597.79
2018-01-16T13:58:16.677Z,99597.24
2018-01-16T14:00:44.257Z,99593.33
2018-01-16T14:03:11.852Z,99587.41
2018-01-16T14:05:39.429Z,99587.34
2018-01-16T14:08:07.013Z,99589.18
2018-01-16T14:10:34.618Z,99585.34
2018-01-16T14:13:02.202Z,99581.70
2018-01-16T14:15:29.769Z,99576.31
2018-01-16T14:17:57.371Z,99577.95
2018-01-16T14:20:24.954Z,99583.32
2018-01-16T14:22:52.528Z,99579.91
2018-01-16T14:25:20.127Z,99579.02
2018-01-16T14:27:47.696Z,99581.91
2018-01-16T14:30:15.286Z,99569.88
2018-01-16T14:32:42.906Z,99562.59
2018-01-16T14:35:10.490Z,99563.94
2018-01-16T14:37:38.097Z,99560.00
2018-01-16T14:40:05.694Z,99557.94
2018-01-16T14:42:33.275Z,99548.10
2018-01-16T14:45:00.843Z,99551.66
2018-01-16T14:47:28.460Z,99553.08
2018-01-16T14:49:56.037Z,99551.73
2018-01-16T14:52:23.613Z,99552.02
2018-01-16T14:54:51.218Z,99546.89
2018-01-16T14:57:18.783Z,99544.28
2018-01-16T14:59:46.357Z,99534.78
2018-01-16T15:02:13.970Z,99529.01
2018-01-16T15:04:41.561Z,99522.14
2018-01-16T15:07:09.141Z,99527.91
2018-01-16T15:09:36.765Z,99534.17
2018-01-16T15:12:04.368Z,99532.11
2018-01-16T15:14:31.940Z,99524.95
2018-01-16T15:16:59.549Z,99524.48
2018-01-16T15:19:27.133Z,99529.23
2018-01-16T15:21:54.727Z,99526.64
2018-01-16T15:24:22.327Z,99520.80
2018-01-16T15:26:49.912Z,99517.50
2018-01-16T15:29:17.493Z,99526.43
2018-01-16T15:31:45.108Z,99523.70
2018-01-16T15:34:12.687Z,99513.70
2018-01-16T15:36:42.654Z,99510.81
2018-01-16T15:39:10.403Z,99498.46
2018-01-16T15:41:38.025Z,99493.98
2018-01-16T15:44:05.600Z,99494.52
2018-01-16T15:46:33.228Z,99486.78
2018-01-16T15:49:00.796Z,99482.96
2018-01-16T15:51:28.388Z,99482.30
2018-01-16T15:53:56.005Z,99488.52
2018-01-16T15:56:23.593Z,99478.73
2018-01-16T15:58:51.178Z,99469.59
2018-01-16T16:01:18.821Z,99472.44
2018-01-16T16:03:46.450Z,99453.55
2018-01-16T16:06:14.041Z,99471.56
2018-01-16T16:08:41.824Z,99458.85
2018-01-16T16:11:09.414Z,99462.64
2018-01-16T16:13:37.006Z,99469.27
2018-01-16T16:16:04.628Z,99468.72
2018-01-16T16:18:32.213Z,99457.16
2018-01-16T16:20:59.794Z,99447.50
2018-01-16T16:23:27.423Z,99443.27
2018-01-16T16:25:55.018Z,99439.02
2018-01-16T16:28:22.595Z,99437.74
2018-01-16T16:30:50.274Z,99429.68
2018-01-16T16:33:17.845Z,99425.52
2018-01-16T16:35:45.441Z,99420.16
2018-01-16T16:38:13.070Z,99420.55
2018-01-16T16:40:40.641Z,99419.22
2018-01-16T16:43:08.234Z,99413.50
2018-01-16T16:45:35.843Z,99415.93
2018-01-16T16:48:03.415Z,99425.03
2018-01-16T16:50:30.990Z,99416.11
2018-01-16T16:52:58.624Z,99410.31
2018-01-16T16:55:26.186Z,99418.75
2018-01-16T16:57:53.751Z,99418.55
2018-01-16T17:00:21.377Z,99417.83
2018-01-16T17:02:48.947Z,99406.36
2018-01-16T17:05:16.490Z,99404.05
2018-01-16T17:07:44.077Z,99407.61
2018-01-16T17:10:11.649Z,99400.00
2018-01-16T17:12:39.226Z,99399.84
2018-01-16T17:15:06.843Z,99399.03
2018-01-16T17:17:34.454Z,99410.18
2018-01-16T17:20:02.061Z,99402.73
2018-01-16T17:22:29.673Z,99401.22
2018-01-16T17:24:57.263Z,99406.77
2018-01-16T17:27:24.825Z,99405.74
2018-01-16T17:29:52.429Z,99387.66
2018-01-16T17:32:20.016Z,99387.81
2018-01-16T17:34:47.605Z,99389.08
2018-01-16T17:37:15.210Z,99385.88
2018-01-16T17:39:42.772Z,99373.32
2018-01-16T17:42:10.337Z,99365.86
2018-01-16T17:44:38.033Z,99363.17
2018-01-16T17:47:05.606Z,99368.96
2018-01-16T17:49:33.185Z,99357.55
2018-01-16T17:52:00.798Z,99349.23
2018-01-16T17:54:28.354Z,99343.55
2018-01-16T17:56:55.918Z,99346.55
2018-01-16T17:59:23.518Z,99348.10
2018-01-16T18:01:51.112Z,99345.63
2018-01-16T18:04:18.692Z,99346.23
2018-01-16T18:06:46.302Z,99353.74
2018-01-16T18:09:13.890Z,99342.12
2018-01-16T18:11:41.659Z,99339.66
2018-01-16T18:14:09.258Z,99352.28
2018-01-16T18:16:36.826Z,99344.65
2018-01-16T18:19:04.492Z,99337.81
2018-01-16T18:21:32.094Z,99332.11
2018-01-16T18:23:59.636Z,99328.39
2018-01-16T18:26:27.213Z,99321.28
2018-01-16T18:28:54.830Z,99323.34
2018-01-16T18:31:22.397Z,99325.98
2018-01-16T18:33:50.178Z,99321.04
2018-01-16T18:36:17.796Z,99322.03
2018-01-16T18:38:45.369Z,99317.77
2018-01-16T18:41:12.939Z,99298.22
2018-01-16T18:43:40.558Z,99293.25
2018-01-16T18:46:08.118Z,99297.64
2018-01-16T18:48:35.675Z,99290.64
2018-01-16T18:51:03.939Z,99285.52
2018-01-16T18:53:31.496Z,99279.08
2018-01-16T18:55:59.074Z,99274.14
2018-01-16T18:58:26.653Z,99276.09
2018-01-16T19:00:54.207Z,99269.98
2018-01-16T19:03:21.765Z,99258.52
2018-01-16T19:05:49.385Z,99259.56
2018-01-16T19:08:16.945Z,99257.81
2018-01-16T19:10:44.514Z,99252.63
2018-01-16T19:13:12.135Z,99257.06
2018-01-16T19:15:39.724Z,99263.31
2018-01-16T19:18:07.282Z,99266.41
2018-01-16T19:20:34.896Z,99257.64
2018-01-16T19:23:02.473Z,99257.53
2018-01-16T19:25:30.041Z,99246.06
2018-01-16T19:27:57.635Z,99244.59
2018-01-16T19:30:25.210Z,99246.28
2018-01-16T19:32:52.764Z,99245.54
2018-01-16T19:35:20.409Z,99241.64
2018-01-16T19:37:47.973Z,99233.95
2018-01-16T19:40:15.538Z,99235.88
2018-01-16T19:42:43.137Z,99241.25
2018-01-16T19:45:10.757Z,99243.77
2018-01-16T19:47:38.309Z,99246.77
2018-01-16T19:50:05.903Z,99236.26
2018-01-16T19:52:33.466Z,99234.61
2018-01-16T19:55:01.040Z,99225.84
2018-01-16T19:57:28.731Z,99232.49
2018-01-16T19:59:56.310Z,99222.54
2018-01-16T20:02:23.877Z,99219.09
2018-01-16T20:04:52.630Z,99215.31
2018-01-16T20:07:20.188Z,99216.34
2018-01-16T20:09:47.752Z,99217.23
2018-01-16T20:12:15.359Z,99212.47
2018-01-16T20:14:43.878Z,99213.84
2018-01-16T20:17:11.436Z,99214.66
2018-01-16T20:19:39.036Z,99211.62
2018-01-16T20:22:06.600Z,99209.02
2018-01-16T20:24:34.165Z,99207.92
2018-01-16T20:27:01.811Z,99205.02
2018-01-16T20:29:29.381Z,99190.39
2018-01-16T20:31:56.953Z,99198.36
2018-01-16T20:34:24.580Z,99177.16
2018-01-16T20:36:52.172Z,99181.27
2018-01-16T20:39:19.783Z,99194.11
2018-01-16T20:41:47.393Z,99188.60
2018-01-16T20:44:14.968Z,99194.05
2018-01-16T20:46:42.607Z,99193.28
2018-01-16T20:49:10.412Z,99204.28
2018-01-16T20:51:38.007Z,99208.64
2018-01-16T20:54:05.561Z,99212.12
2018-01-16T20:56:33.161Z,99215.45
2018-01-16T20:59:00.730Z,99206.23
2018-01-16T21:01:28.283Z,99213.63
2018-01-16T21:03:56.001Z,99212.89
2018-01-16T21:06:23.657Z,99212.58
2018-01-16T21:08:51.247Z,99218.84
2018-01-16T21:11:18.936Z,99224.64
2018-01-16T21:13:46.517Z,99224.25
2018-01-16T21:16:14.107Z,99231.66
2018-01-16T21:18:41.706Z,99231.92
2018-01-16T21:21:09.328Z,99235.31
2018-01-16T21:23:37.049Z,99237.06
2018-01-16T21:26:04.668Z,99243.50
2018-01-16T21:28:32.233Z,99242.69
2018-01-16T21:30:59.800Z,99240.22
2018-01-16T21:33:27.489Z,99238.83
2018-01-16T21:35:55.130Z,99239.83
2018-01-16T21:38:22.800Z,99229.66
2018-01-16T21:40:50.431Z,99226.19
2018-01-16T21:43:17.997Z,99214.84
2018-01-16T21:45:45.577Z,99208.31
2018-01-16T21:48:13.230Z,99209.09
2018-01-16T21:50:40.811Z,99198.56
2018-01-16T21:53:08.433Z,99201.69
2018-01-16T21:55:36.029Z,99203.50
2018-01-16T21:58:03.615Z,99188.09
2018-01-16T22:00:31.231Z,99187.52
2018-01-16T22:02:58.835Z,99177.73
2018-01-16T22:05:26.414Z,99167.49
2018-01-16T22:07:54.149Z,99162.25
2018-01-16T22:10:21.793Z,99169.98
2018-01-16T22:12:49.520Z,99176.83
2018-01-16T22:15:17.183Z,99174.78
2018-01-16T22:17:44.788Z,99189.94
2018-01-16T22:20:12.380Z,99198.98
2018-01-16T22:22:39.952Z,99202.53
2018-01-16T22:25:07.554Z,99214.57
2018-01-16T22:27:35.231Z,99207.66
2018-01-16T22:30:02.820Z,99212.42
2018-01-16T22:32:30.491Z,99216.30
2018-01-16T22:34:58.066Z,99214.24
2018-01-16T22:37:25.623Z,99209.80
2018-01-16T22:39:53.333Z,99204.58
2018-01-16T22:42:20.903Z,99192.64
2018-01-16T22:44:48.463Z,99195.88
2018-01-16T22:47:16.056Z,99193.16
2018-01-16T22:49:43.603Z,99192.95
2018-01-16T22:52:11.188Z,99195.02
2018-01-16T22:54:38.862Z,99183.80
2018-01-16T22:57:06.470Z,99169.58
2018-01-16T22:59:34.039Z,99162.67
2018-01-16T23:02:01.642Z,99157.22
2018-01-16T23:04:29.241Z,99157.55
2018-01-16T23:06:56.807Z,99160.75
2018-01-16T23:09:24.447Z,99157.17
2018-01-16T23:11:52.121Z,99156.88
2018-01-16T23:14:19.679Z,99145.64
2018-01-16T23:16:47.270Z,99154.54
2018-01-16T23:19:14.835Z,99151.08
2018-01-16T23:21:42.390Z,99157.94
2018-01-16T23:24:09.993Z,99154.73
2018-01-16T23:26:37.577Z,99150.44
2018-01-16T23:29:05.139Z,99151.31
2018-01-16T23:31:32.761Z,99144.98
2018-01-16T23:34:00.330Z,99147.06
2018-01-16T23:36:27.964Z,99150.22
2018-01-16T23:38:55.581Z,99152.00
2018-01-16T23:41:23.146Z,99152.24
2018-01-16T23:43:50.698Z,99152.33
2018-01-16T23:46:18.287Z,99147.53
2018-01-16T23:48:45.882Z,99148.14
2018-01-16T23:51:13.504Z,99149.73
2018-01-16T23:53:41.126Z,99144.77
2018-01-16T23:56:08.745Z,99138.95
2018-01-16T23:58:36.318Z,99144.52
